createdAt,value
2022-08-22T00:00:56.442Z,79.90
2022-08-22T00:01:56.468Z,80.20
2022-08-22T00:02:48.856Z,72.77
2022-08-22T00:02:54.564Z,75.56
2022-08-22T00:03:11.355Z,75.09
2022-08-22T00:03:17.578Z,80.50
2022-08-22T00:03:57.407Z,81.01
2022-08-22T00:04:56.394Z,81.10
2022-08-22T00:05:56.414Z,81.21
2022-08-22T00:06:56.402Z,81.45
2022-08-22T00:07:56.443Z,81.15
2022-08-22T00:08:56.350Z,81.45
2022-08-22T00:09:56.337Z,80.94
2022-08-22T00:10:56.813Z,81.15
2022-08-22T00:11:56.318Z,80.84
2022-08-22T00:12:56.644Z,81.24
2022-08-22T00:14:01.572Z,81.15
2022-08-22T00:14:57.296Z,81.21
2022-08-22T00:15:56.273Z,81.35
2022-08-22T00:16:56.258Z,81.45
2022-08-22T00:17:56.279Z,81.35
2022-08-22T00:18:56.238Z,81.45
2022-08-22T00:19:56.245Z,81.35
2022-08-22T00:20:56.214Z,80.74
2022-08-22T00:21:56.202Z,80.74
2022-08-22T00:22:56.185Z,81.15
2022-08-22T00:23:56.185Z,81.65
2022-08-22T00:24:56.184Z,82.15
2022-08-22T00:25:56.156Z,81.65
2022-08-22T00:26:56.153Z,83.16
2022-08-22T00:27:56.347Z,82.56
2022-08-22T00:28:56.118Z,82.05
2022-08-22T00:29:56.139Z,81.71
2022-08-22T00:30:56.099Z,81.91
2022-08-22T00:31:56.086Z,81.01
2022-08-22T00:32:56.074Z,80.00
2022-08-22T00:33:56.057Z,79.19
2022-08-22T00:34:56.080Z,79.09
2022-08-22T00:35:56.041Z,79.39
2022-08-22T00:36:56.032Z,79.56
2022-08-22T00:37:56.028Z,79.25
2022-08-22T00:38:56.005Z,79.05
2022-08-22T00:39:56.063Z,77.84
2022-08-22T00:40:55.984Z,77.61
2022-08-22T00:41:55.970Z,76.20
2022-08-22T00:42:56.015Z,75.70
2022-08-22T00:43:55.945Z,75.39
2022-08-22T00:44:55.935Z,76.43
2022-08-22T00:45:55.973Z,75.90
2022-08-22T00:46:56.423Z,76.84
2022-08-22T00:47:55.953Z,77.04
2022-08-22T00:48:55.889Z,77.78
2022-08-22T00:49:55.908Z,77.98
2022-08-22T00:50:55.898Z,78.08
2022-08-22T00:51:55.878Z,78.08
2022-08-22T00:52:56.236Z,78.19
2022-08-22T00:53:55.863Z,79.09
2022-08-22T00:54:55.842Z,79.29
2022-08-22T00:55:55.813Z,79.29
2022-08-22T00:56:55.804Z,80.10
2022-08-22T00:57:55.867Z,80.00
2022-08-22T00:58:55.802Z,80.24
2022-08-22T00:59:56.018Z,80.13
2022-08-22T01:00:55.821Z,80.33
2022-08-22T01:01:55.744Z,80.54
2022-08-22T01:02:55.741Z,80.64
2022-08-22T01:03:56.073Z,80.94
2022-08-22T01:04:55.741Z,81.28
2022-08-22T01:05:55.700Z,81.18
2022-08-22T01:06:55.692Z,81.38
2022-08-22T01:07:55.869Z,81.68
2022-08-22T01:08:55.686Z,82.09
2022-08-22T01:09:55.657Z,81.38
2022-08-22T01:10:55.645Z,81.52
2022-08-22T01:11:55.638Z,82.29
2022-08-22T01:12:55.641Z,82.29
2022-08-22T01:13:55.665Z,81.89
2022-08-22T01:14:55.624Z,81.79
2022-08-22T01:15:55.597Z,81.18
2022-08-22T01:16:55.689Z,80.98
2022-08-22T01:17:55.714Z,81.48
2022-08-22T01:18:55.556Z,80.82
2022-08-22T01:19:55.561Z,80.98
2022-08-22T01:20:55.641Z,81.28
2022-08-22T01:21:55.546Z,82.23
2022-08-22T01:22:55.517Z,82.03
2022-08-22T01:23:55.568Z,81.93
2022-08-22T01:24:55.509Z,81.99
2022-08-22T01:25:55.514Z,82.43
2022-08-22T01:26:55.496Z,82.09
2022-08-22T01:27:55.530Z,83.10
2022-08-22T01:28:56.336Z,82.93
2022-08-22T01:29:55.517Z,83.04
2022-08-22T01:30:55.483Z,82.93
2022-08-22T01:31:55.452Z,82.84
2022-08-22T01:32:56.824Z,82.64
2022-08-22T01:33:55.402Z,82.93
2022-08-22T01:34:55.380Z,83.44
2022-08-22T01:35:55.439Z,84.25
2022-08-22T01:36:55.384Z,84.35
2022-08-22T01:37:55.374Z,84.15
2022-08-22T01:38:55.356Z,84.55
2022-08-22T01:39:55.407Z,83.14
2022-08-22T01:40:55.315Z,82.84
2022-08-22T01:41:55.324Z,82.43
2022-08-22T01:42:55.296Z,81.79
2022-08-22T01:44:00.549Z,81.79
2022-08-22T01:44:56.275Z,81.82
2022-08-22T01:45:55.259Z,81.93
2022-08-22T01:46:55.248Z,81.89
2022-08-22T01:47:55.304Z,81.68
2022-08-22T01:48:55.273Z,82.33
2022-08-22T01:49:55.244Z,82.03
2022-08-22T01:50:55.202Z,82.73
2022-08-22T01:51:55.198Z,81.82
2022-08-22T01:52:55.228Z,81.93
2022-08-22T01:53:55.198Z,82.43
2022-08-22T01:54:55.601Z,82.43
2022-08-22T01:55:55.198Z,82.43
2022-08-22T01:56:55.205Z,82.84
2022-08-22T01:57:55.335Z,82.84
2022-08-22T01:58:55.221Z,83.18
2022-08-22T01:59:55.822Z,82.47
2022-08-22T02:00:55.884Z,83.07
2022-08-22T02:01:55.146Z,83.58
2022-08-22T02:02:55.253Z,83.78
2022-08-22T02:03:55.131Z,83.38
2022-08-22T02:04:55.120Z,83.98
2022-08-22T02:05:55.124Z,83.98
2022-08-22T02:06:55.083Z,84.19
2022-08-22T02:07:55.413Z,84.19
2022-08-22T02:08:55.003Z,83.58
2022-08-22T02:09:54.997Z,84.33
2022-08-22T02:10:54.984Z,84.49
2022-08-22T02:11:54.995Z,84.33
2022-08-22T02:12:54.977Z,84.03
2022-08-22T02:13:54.951Z,84.43
2022-08-22T02:14:54.938Z,84.63
2022-08-22T02:15:54.933Z,84.83
2022-08-22T02:16:54.932Z,84.93
2022-08-22T02:17:54.912Z,84.93
2022-08-22T02:18:54.887Z,84.93
2022-08-22T02:19:54.885Z,84.73
2022-08-22T02:20:54.906Z,84.83
2022-08-22T02:21:54.868Z,84.63
2022-08-22T02:22:54.852Z,84.63
2022-08-22T02:23:56.068Z,84.53
2022-08-22T02:24:54.839Z,84.83
2022-08-22T02:25:54.814Z,84.53
2022-08-22T02:26:55.360Z,84.53
2022-08-22T02:27:54.855Z,84.79
2022-08-22T02:28:57.335Z,84.93
2022-08-22T02:29:54.772Z,85.44
2022-08-22T02:30:54.778Z,85.44
2022-08-22T02:31:54.746Z,85.24
2022-08-22T02:32:54.741Z,85.44
2022-08-22T02:33:54.729Z,85.44
2022-08-22T02:34:54.726Z,85.44
2022-08-22T02:35:54.724Z,84.93
2022-08-22T02:36:54.699Z,84.93
2022-08-22T02:37:54.694Z,84.93
2022-08-22T02:38:54.676Z,85.94
2022-08-22T02:39:54.710Z,85.54
2022-08-22T02:40:54.670Z,86.25
2022-08-22T02:41:55.327Z,86.25
2022-08-22T02:42:54.629Z,86.35
2022-08-22T02:43:54.638Z,85.74
2022-08-22T02:44:54.635Z,86.45
2022-08-22T02:45:55.621Z,86.25
2022-08-22T02:46:54.586Z,86.45
2022-08-22T02:47:54.610Z,85.84
2022-08-22T02:48:54.561Z,85.64
2022-08-22T02:49:54.546Z,86.35
2022-08-22T02:50:54.555Z,86.25
2022-08-22T02:51:54.620Z,85.78
2022-08-22T02:52:54.516Z,86.35
2022-08-22T02:53:54.512Z,86.04
2022-08-22T02:54:54.541Z,86.35
2022-08-22T02:55:54.482Z,86.45
2022-08-22T02:56:54.475Z,86.45
2022-08-22T02:57:54.462Z,86.15
2022-08-22T02:58:57.045Z,86.15
2022-08-22T02:59:55.472Z,86.15
2022-08-22T03:00:54.484Z,86.25
2022-08-22T03:01:54.419Z,85.64
2022-08-22T03:02:54.403Z,86.55
2022-08-22T03:03:54.392Z,86.39
2022-08-22T03:04:55.461Z,86.55
2022-08-22T03:05:59.032Z,86.75
2022-08-22T03:06:56.561Z,86.79
2022-08-22T03:07:54.352Z,86.65
2022-08-22T03:08:54.338Z,86.55
2022-08-22T03:09:54.324Z,86.45
2022-08-22T03:10:54.333Z,86.41
2022-08-22T03:11:54.301Z,85.90
2022-08-22T03:12:57.418Z,86.27
2022-08-22T03:13:54.566Z,86.36
2022-08-22T03:14:54.312Z,85.16
2022-08-22T03:15:54.260Z,84.85
2022-08-22T03:16:54.248Z,84.95
2022-08-22T03:17:54.323Z,84.65
2022-08-22T03:18:54.264Z,84.61
2022-08-22T03:19:54.213Z,84.41
2022-08-22T03:20:54.221Z,84.07
2022-08-22T03:21:54.192Z,83.56
2022-08-22T03:22:54.179Z,82.71
2022-08-22T03:23:54.204Z,82.48
2022-08-22T03:24:54.155Z,81.37
2022-08-22T03:25:54.165Z,80.66
2022-08-22T03:26:54.139Z,80.22
2022-08-22T03:27:54.124Z,79.22
2022-08-22T03:28:59.682Z,79.52
2022-08-22T03:29:55.098Z,79.52
2022-08-22T03:30:54.368Z,79.22
2022-08-22T03:32:01.880Z,79.28
2022-08-22T03:32:54.095Z,78.88
2022-08-22T03:33:54.059Z,78.58
2022-08-22T03:34:54.052Z,78.07
2022-08-22T03:35:54.056Z,78.78
2022-08-22T03:36:54.043Z,79.18
2022-08-22T03:37:54.015Z,78.98
2022-08-22T03:38:54.873Z,78.98
2022-08-22T03:39:54.042Z,78.88
2022-08-22T03:40:53.983Z,78.67
2022-08-22T03:41:53.976Z,78.54
2022-08-22T03:42:53.978Z,79.14
2022-08-22T03:43:53.965Z,79.42
2022-08-22T03:44:53.937Z,79.58
2022-08-22T03:45:53.921Z,80.43
2022-08-22T03:46:53.911Z,80.66
2022-08-22T03:47:53.903Z,80.87
2022-08-22T03:48:53.928Z,81.37
2022-08-22T03:49:57.683Z,81.33
2022-08-22T03:50:54.867Z,81.27
2022-08-22T03:51:53.857Z,81.13
2022-08-22T03:52:53.847Z,80.52
2022-08-22T03:53:53.885Z,80.08
2022-08-22T03:54:53.826Z,79.92
2022-08-22T03:55:53.825Z,80.32
2022-08-22T03:56:57.382Z,80.32
2022-08-22T03:57:53.793Z,80.66
2022-08-22T03:58:53.801Z,80.87
2022-08-22T03:59:53.776Z,80.66
2022-08-22T04:00:56.529Z,81.01
2022-08-22T04:01:53.765Z,81.30
2022-08-22T04:02:53.741Z,81.27
2022-08-22T04:03:53.743Z,81.61
2022-08-22T04:04:53.725Z,81.30
2022-08-22T04:05:53.702Z,81.81
2022-08-22T04:06:56.535Z,81.51
2022-08-22T04:07:53.699Z,81.71
2022-08-22T04:08:53.692Z,82.15
2022-08-22T04:09:53.658Z,82.65
2022-08-22T04:10:53.740Z,82.05
2022-08-22T04:11:53.638Z,82.39
2022-08-22T04:12:53.655Z,82.35
2022-08-22T04:13:53.638Z,82.15
2022-08-22T04:14:53.606Z,82.15
2022-08-22T04:15:53.599Z,82.90
2022-08-22T04:16:53.579Z,83.10
2022-08-22T04:17:53.589Z,83.10
2022-08-22T04:18:53.602Z,82.90
2022-08-22T04:19:53.561Z,82.90
2022-08-22T04:20:53.538Z,82.70
2022-08-22T04:21:53.522Z,82.19
2022-08-22T04:22:53.541Z,83.36
2022-08-22T04:23:53.849Z,82.79
2022-08-22T04:24:53.493Z,83.10
2022-08-22T04:25:53.483Z,83.70
2022-08-22T04:26:53.470Z,83.40
2022-08-22T04:27:53.480Z,84.41
2022-08-22T04:28:53.471Z,84.25
2022-08-22T04:29:54.348Z,85.02
2022-08-22T04:30:53.427Z,84.85
2022-08-22T04:31:53.414Z,85.05
2022-08-22T04:32:53.414Z,85.46
2022-08-22T04:33:53.417Z,85.36
2022-08-22T04:34:53.385Z,85.36
2022-08-22T04:35:53.373Z,85.05
2022-08-22T04:36:53.363Z,84.85
2022-08-22T04:37:53.382Z,84.75
2022-08-22T04:38:53.337Z,84.75
2022-08-22T04:39:53.441Z,84.65
2022-08-22T04:40:53.315Z,84.45
2022-08-22T04:41:53.305Z,84.55
2022-08-22T04:42:53.325Z,84.55
2022-08-22T04:43:53.283Z,84.55
2022-08-22T04:44:53.271Z,84.31
2022-08-22T04:45:53.260Z,84.35
2022-08-22T04:46:53.899Z,84.45
2022-08-22T04:47:56.782Z,84.25
2022-08-22T04:48:53.225Z,84.25
2022-08-22T04:49:53.226Z,84.01
2022-08-22T04:50:53.206Z,84.35
2022-08-22T04:51:53.191Z,84.35
2022-08-22T04:52:53.197Z,84.35
2022-08-22T04:53:53.169Z,84.45
2022-08-22T04:54:53.166Z,84.41
2022-08-22T04:55:53.153Z,84.51
2022-08-22T04:56:53.169Z,84.51
2022-08-22T04:57:53.264Z,84.41
2022-08-22T04:58:53.116Z,84.41
2022-08-22T04:59:53.105Z,84.41
2022-08-22T05:00:53.094Z,84.51
2022-08-22T05:01:53.133Z,84.15
2022-08-22T05:02:53.328Z,84.25
2022-08-22T05:03:53.858Z,84.31
2022-08-22T05:04:53.044Z,84.55
2022-08-22T05:05:53.039Z,84.41
2022-08-22T05:06:53.025Z,84.21
2022-08-22T05:07:53.047Z,84.31
2022-08-22T05:08:53.698Z,84.31
2022-08-22T05:09:52.992Z,84.41
2022-08-22T05:10:52.986Z,84.31
2022-08-22T05:11:52.970Z,83.87
2022-08-22T05:12:52.963Z,83.46
2022-08-22T05:13:52.960Z,83.26
2022-08-22T05:14:54.500Z,83.87
2022-08-22T05:15:52.926Z,83.46
2022-08-22T05:16:53.198Z,82.96
2022-08-22T05:17:53.105Z,82.76
2022-08-22T05:18:52.896Z,83.16
2022-08-22T05:19:52.886Z,82.62
2022-08-22T05:20:53.413Z,82.82
2022-08-22T05:21:52.864Z,83.12
2022-08-22T05:22:52.890Z,82.92
2022-08-22T05:23:52.863Z,82.88
2022-08-22T05:24:52.829Z,82.98
2022-08-22T05:25:52.815Z,82.28
2022-08-22T05:26:52.870Z,81.77
2022-08-22T05:27:56.289Z,82.18
2022-08-22T05:28:53.485Z,81.84
2022-08-22T05:29:52.790Z,81.43
2022-08-22T05:30:52.762Z,81.39
2022-08-22T05:31:52.758Z,81.39
2022-08-22T05:32:52.739Z,81.19
2022-08-22T05:33:52.755Z,80.89
2022-08-22T05:34:52.719Z,80.35
2022-08-22T05:35:57.600Z,79.94
2022-08-22T05:36:53.714Z,79.74
2022-08-22T05:37:52.694Z,80.05
2022-08-22T05:38:52.668Z,79.71
2022-08-22T05:39:53.005Z,79.00
2022-08-22T05:40:52.648Z,79.00
2022-08-22T05:41:52.635Z,78.90
2022-08-22T05:42:52.626Z,78.20
2022-08-22T05:43:52.635Z,78.10
2022-08-22T05:44:52.629Z,77.36
2022-08-22T05:45:52.605Z,77.06
2022-08-22T05:46:52.592Z,76.72
2022-08-22T05:47:52.629Z,76.68
2022-08-22T05:48:52.555Z,75.68
2022-08-22T05:49:52.555Z,74.98
2022-08-22T05:50:52.548Z,75.18
2022-08-22T05:51:52.520Z,75.38
2022-08-22T05:52:52.516Z,76.02
2022-08-22T05:53:52.517Z,75.88
2022-08-22T05:54:52.515Z,75.68
2022-08-22T05:55:52.480Z,75.68
2022-08-22T05:56:53.414Z,75.88
2022-08-22T05:57:52.568Z,75.38
2022-08-22T05:58:52.462Z,75.88
2022-08-22T05:59:52.427Z,75.98
2022-08-22T06:00:52.422Z,75.48
2022-08-22T06:01:52.445Z,74.68
2022-08-22T06:02:52.401Z,75.18
2022-08-22T06:03:52.407Z,75.48
2022-08-22T06:04:52.438Z,75.98
2022-08-22T06:05:52.370Z,76.08
2022-08-22T06:06:52.353Z,76.89
2022-08-22T06:07:52.341Z,76.38
2022-08-22T06:08:52.353Z,75.34
2022-08-22T06:09:52.327Z,75.04
2022-08-22T06:10:52.315Z,74.74
2022-08-22T06:11:52.299Z,74.74
2022-08-22T06:12:52.289Z,74.60
2022-08-22T06:13:52.494Z,74.71
2022-08-22T06:14:52.267Z,73.97
2022-08-22T06:15:52.251Z,74.17
2022-08-22T06:16:52.254Z,73.33
2022-08-22T06:17:52.233Z,73.50
2022-08-22T06:18:52.220Z,72.66
2022-08-22T06:19:52.226Z,71.73
2022-08-22T06:20:52.221Z,70.99
2022-08-22T06:21:52.184Z,69.86
2022-08-22T06:22:52.175Z,69.13
2022-08-22T06:23:52.168Z,67.96
2022-08-22T06:24:52.458Z,67.07
2022-08-22T06:25:52.141Z,66.27
2022-08-22T06:26:52.163Z,66.83
2022-08-22T06:27:52.141Z,66.20
2022-08-22T06:28:54.626Z,65.97
2022-08-22T06:29:52.094Z,65.17
2022-08-22T06:30:52.204Z,64.75
2022-08-22T06:31:52.073Z,64.42
2022-08-22T06:32:59.738Z,63.82
2022-08-22T06:33:53.075Z,62.86
2022-08-22T06:34:52.059Z,62.53
2022-08-22T06:35:52.034Z,62.73
2022-08-22T06:36:52.019Z,62.04
2022-08-22T06:37:52.041Z,61.21
2022-08-22T06:38:52.015Z,61.18
2022-08-22T06:39:52.024Z,60.88
2022-08-22T06:40:51.974Z,60.56
2022-08-22T06:41:51.994Z,60.16
2022-08-22T06:42:51.952Z,59.96
2022-08-22T06:43:51.942Z,60.61
2022-08-22T06:44:51.949Z,61.77
2022-08-22T06:45:51.936Z,62.56
2022-08-22T06:46:51.909Z,62.40
2022-08-22T06:47:53.543Z,62.86
2022-08-22T06:48:51.885Z,62.59
2022-08-22T06:49:51.894Z,61.99
2022-08-22T06:50:51.874Z,62.59
2022-08-22T06:51:51.851Z,62.10
2022-08-22T06:52:51.868Z,62.59
2022-08-22T06:53:51.842Z,62.19
2022-08-22T06:54:51.833Z,61.96
2022-08-22T06:55:51.810Z,61.14
2022-08-22T06:56:51.804Z,60.94
2022-08-22T06:57:51.804Z,61.21
2022-08-22T06:58:51.929Z,60.52
2022-08-22T06:59:51.766Z,61.44
2022-08-22T07:01:11.227Z,61.83
2022-08-22T07:01:52.821Z,61.11
2022-08-22T07:02:51.739Z,61.34
2022-08-22T07:03:51.725Z,61.31
2022-08-22T07:04:52.442Z,61.51
2022-08-22T07:05:51.705Z,60.19
2022-08-22T07:06:51.692Z,59.56
2022-08-22T07:07:51.697Z,58.94
2022-08-22T07:08:52.723Z,57.15
2022-08-22T07:09:51.657Z,56.43
2022-08-22T07:10:51.666Z,56.11
2022-08-22T07:11:51.634Z,56.08
2022-08-22T07:12:51.640Z,53.67
2022-08-22T07:13:51.615Z,53.48
2022-08-22T07:14:51.602Z,53.53
2022-08-22T07:15:51.611Z,51.72
2022-08-22T07:16:51.597Z,51.79
2022-08-22T07:17:51.570Z,50.78
2022-08-22T07:18:51.579Z,51.57
2022-08-22T07:19:51.554Z,50.46
2022-08-22T07:20:51.641Z,50.24
2022-08-22T07:21:51.591Z,49.84
2022-08-22T07:22:54.023Z,51.10
2022-08-22T07:23:52.403Z,52.51
2022-08-22T07:24:51.487Z,53.25
2022-08-22T07:25:51.484Z,53.06
2022-08-22T07:26:51.557Z,53.06
2022-08-22T07:27:51.462Z,53.78
2022-08-22T07:28:58.716Z,53.60
2022-08-22T07:29:52.483Z,54.00
2022-08-22T07:30:51.427Z,55.15
2022-08-22T07:31:51.432Z,54.97
2022-08-22T07:32:51.403Z,54.87
2022-08-22T07:33:51.393Z,55.10
2022-08-22T07:34:51.433Z,56.61
2022-08-22T07:35:53.038Z,57.04
2022-08-22T07:36:51.367Z,56.61
2022-08-22T07:37:51.367Z,57.18
2022-08-22T07:38:51.348Z,57.24
2022-08-22T07:39:51.400Z,58.95
2022-08-22T07:40:51.323Z,57.93
2022-08-22T07:41:51.309Z,56.88
2022-08-22T07:42:51.315Z,56.09
2022-08-22T07:43:51.280Z,56.56
2022-08-22T07:44:51.286Z,56.36
2022-08-22T07:45:51.266Z,56.26
2022-08-22T07:46:51.274Z,55.64
2022-08-22T07:47:51.244Z,55.66
2022-08-22T07:49:08.163Z,57.18
2022-08-22T07:49:52.219Z,56.68
2022-08-22T07:50:51.203Z,56.91
2022-08-22T07:51:51.319Z,56.51
2022-08-22T07:52:51.196Z,58.10
2022-08-22T07:53:51.196Z,57.08
2022-08-22T07:54:51.162Z,56.46
2022-08-22T07:55:51.174Z,56.04
2022-08-22T07:56:51.152Z,55.41
2022-08-22T07:57:51.507Z,55.02
2022-08-22T07:58:51.120Z,52.71
2022-08-22T07:59:51.132Z,52.39
2022-08-22T08:00:51.097Z,51.20
2022-08-22T08:01:51.175Z,50.98
2022-08-22T08:02:51.076Z,50.78
2022-08-22T08:03:51.091Z,50.09
2022-08-22T08:04:51.087Z,49.66
2022-08-22T08:05:51.045Z,50.26
2022-08-22T08:06:51.029Z,49.91
2022-08-22T08:07:51.018Z,51.45
2022-08-22T08:08:51.005Z,51.97
2022-08-22T08:09:51.026Z,52.22
2022-08-22T08:10:51.965Z,51.60
2022-08-22T08:11:50.973Z,49.91
2022-08-22T08:13:01.861Z,49.15
2022-08-22T08:13:51.950Z,50.13
2022-08-22T08:14:51.030Z,49.49
2022-08-22T08:15:50.940Z,48.68
2022-08-22T08:16:51.242Z,49.25
2022-08-22T08:17:50.916Z,48.14
2022-08-22T08:18:50.898Z,46.93
2022-08-22T08:19:50.918Z,46.39
2022-08-22T08:20:50.875Z,45.97
2022-08-22T08:21:50.878Z,46.54
2022-08-22T08:22:51.430Z,45.53
2022-08-22T08:23:50.843Z,46.04
2022-08-22T08:24:50.855Z,46.26
2022-08-22T08:25:53.759Z,46.15
2022-08-22T08:26:50.811Z,45.93
2022-08-22T08:27:51.296Z,45.61
2022-08-22T08:28:50.786Z,45.21
2022-08-22T08:29:50.779Z,45.29
2022-08-22T08:30:50.787Z,45.12
2022-08-22T08:31:50.765Z,46.42
2022-08-22T08:32:50.742Z,45.83
2022-08-22T08:33:52.431Z,45.53
2022-08-22T08:34:50.720Z,46.15
2022-08-22T08:36:03.065Z,45.85
2022-08-22T08:36:51.700Z,46.56
2022-08-22T08:37:50.687Z,46.76
2022-08-22T08:38:50.709Z,46.26
2022-08-22T08:39:50.844Z,46.47
2022-08-22T08:40:50.680Z,46.78
2022-08-22T08:41:50.642Z,46.69
2022-08-22T08:42:50.632Z,46.17
2022-08-22T08:43:50.622Z,46.66
2022-08-22T08:44:50.612Z,46.69
2022-08-22T08:45:50.625Z,47.64
2022-08-22T08:46:55.145Z,47.96
2022-08-22T08:47:50.580Z,49.25
2022-08-22T08:48:51.440Z,49.25
2022-08-22T08:49:50.641Z,48.51
2022-08-22T08:50:50.551Z,47.67
2022-08-22T08:51:50.532Z,46.66
2022-08-22T08:53:51.515Z,46.30
2022-08-22T08:54:50.522Z,45.00
2022-08-22T08:55:50.496Z,45.17
2022-08-22T08:56:50.510Z,44.31
2022-08-22T08:57:50.473Z,45.39
2022-08-22T08:58:50.868Z,44.38
2022-08-22T08:59:50.808Z,43.48
2022-08-22T09:00:50.498Z,44.02
2022-08-22T09:01:50.429Z,42.82
2022-08-22T09:02:50.451Z,42.63
2022-08-22T09:03:51.245Z,42.55
2022-08-22T09:04:50.393Z,43.04
2022-08-22T09:05:50.823Z,42.57
2022-08-22T09:06:52.691Z,44.01
2022-08-22T09:07:51.362Z,45.14
2022-08-22T09:08:55.500Z,44.92
2022-08-22T09:10:51.334Z,44.26
2022-08-22T09:11:50.327Z,43.68
2022-08-22T09:12:56.468Z,44.46
2022-08-22T09:13:51.298Z,44.60
2022-08-22T09:14:50.303Z,44.78
2022-08-22T09:15:54.983Z,44.74
2022-08-22T09:16:51.880Z,46.26
2022-08-22T09:17:50.252Z,46.34
2022-08-22T09:18:50.246Z,46.15
2022-08-22T09:19:50.233Z,46.47
2022-08-22T09:20:50.233Z,46.47
2022-08-22T09:21:50.209Z,46.66
2022-08-22T09:22:50.929Z,46.74
2022-08-22T09:23:53.259Z,46.42
2022-08-22T09:24:50.182Z,46.00
2022-08-22T09:25:50.172Z,45.31
2022-08-22T09:26:50.158Z,45.02
2022-08-22T09:27:50.181Z,45.09
2022-08-22T09:28:50.138Z,45.14
2022-08-22T09:29:54.898Z,46.66
2022-08-22T09:30:54.239Z,46.56
2022-08-22T09:31:52.657Z,47.28
2022-08-22T09:32:59.531Z,46.93
2022-08-22T09:33:50.246Z,48.14
2022-08-22T09:34:50.072Z,47.81
2022-08-22T09:35:50.088Z,47.28
2022-08-22T09:36:50.051Z,47.28
2022-08-22T09:37:50.362Z,46.78
2022-08-22T09:38:50.031Z,47.50
2022-08-22T09:39:50.099Z,47.38
2022-08-22T09:40:50.008Z,47.77
2022-08-22T09:41:51.704Z,47.55
2022-08-22T09:42:49.991Z,46.52
2022-08-22T09:43:49.979Z,46.00
2022-08-22T09:44:49.985Z,45.25
2022-08-22T09:45:50.205Z,44.12
2022-08-22T09:46:49.949Z,44.10
2022-08-22T09:47:49.930Z,43.37
2022-08-22T09:48:50.131Z,42.27
2022-08-22T09:49:49.934Z,40.98
2022-08-22T09:50:54.632Z,39.47
2022-08-22T09:51:50.888Z,39.72
2022-08-22T09:52:49.980Z,39.22
2022-08-22T09:53:49.875Z,39.43
2022-08-22T09:54:49.878Z,39.62
2022-08-22T09:55:50.091Z,40.35
2022-08-22T09:56:49.838Z,39.54
2022-08-22T09:57:49.828Z,39.62
2022-08-22T09:58:49.813Z,38.81
2022-08-22T09:59:49.862Z,37.40
2022-08-22T10:00:54.519Z,36.88
2022-08-22T10:01:50.784Z,36.72
2022-08-22T10:02:49.771Z,36.83
2022-08-22T10:03:49.765Z,37.79
2022-08-22T10:04:49.771Z,39.59
2022-08-22T10:05:49.743Z,40.43
2022-08-22T10:06:49.749Z,42.75
2022-08-22T10:07:51.479Z,41.21
2022-08-22T10:08:49.715Z,41.00
2022-08-22T10:09:49.708Z,39.69
2022-08-22T10:10:50.724Z,40.43
2022-08-22T10:11:49.943Z,41.86
2022-08-22T10:12:49.679Z,42.02
2022-08-22T10:13:57.260Z,39.14
2022-08-22T10:14:51.190Z,39.54
2022-08-22T10:15:49.657Z,39.64
2022-08-22T10:16:49.631Z,39.43
2022-08-22T10:17:49.613Z,39.29
2022-08-22T10:18:52.679Z,37.88
2022-08-22T10:19:50.606Z,37.67
2022-08-22T10:20:49.600Z,38.31
2022-08-22T10:21:49.576Z,38.53
2022-08-22T10:22:49.577Z,39.59
2022-08-22T10:23:49.552Z,38.57
2022-08-22T10:24:49.606Z,38.47
2022-08-22T10:25:49.552Z,39.43
2022-08-22T10:26:49.529Z,39.29
2022-08-22T10:27:49.511Z,38.59
2022-08-22T10:28:49.574Z,38.02
2022-08-22T10:29:49.516Z,36.19
2022-08-22T10:30:49.480Z,34.89
2022-08-22T10:31:58.722Z,34.06
2022-08-22T10:32:50.457Z,33.01
2022-08-22T10:33:49.453Z,32.99
2022-08-22T10:34:49.463Z,33.15
2022-08-22T10:35:49.428Z,31.22
2022-08-22T10:36:49.417Z,34.94
2022-08-22T10:37:50.402Z,36.28
2022-08-22T10:38:49.418Z,37.69
2022-08-22T10:39:49.409Z,37.81
2022-08-22T10:40:49.376Z,37.51
2022-08-22T10:41:49.686Z,37.06
2022-08-22T10:42:49.360Z,35.22
2022-08-22T10:43:49.370Z,32.71
2022-08-22T10:44:50.338Z,32.57
2022-08-22T10:45:49.331Z,31.05
2022-08-22T10:46:49.318Z,30.16
2022-08-22T10:47:49.318Z,30.29
2022-08-22T10:48:49.305Z,30.59
2022-08-22T10:49:51.320Z,32.67
2022-08-22T10:50:49.276Z,32.18
2022-08-22T10:51:49.270Z,31.98
2022-08-22T10:52:49.265Z,32.65
2022-08-22T10:53:49.267Z,37.00
2022-08-22T10:54:49.263Z,37.84
2022-08-22T10:55:49.234Z,40.08
2022-08-22T10:56:49.219Z,40.88
2022-08-22T10:57:52.681Z,40.86
2022-08-22T10:58:49.221Z,40.92
2022-08-22T10:59:49.193Z,39.94
2022-08-22T11:00:49.747Z,39.72
2022-08-22T11:01:49.187Z,38.47
2022-08-22T11:02:49.175Z,36.94
2022-08-22T11:03:49.178Z,38.74
2022-08-22T11:04:49.606Z,39.31
2022-08-22T11:05:50.181Z,37.49
2022-08-22T11:06:49.147Z,36.88
2022-08-22T11:07:50.215Z,37.35
2022-08-22T11:08:49.117Z,36.52
2022-08-22T11:09:49.107Z,34.71
2022-08-22T11:10:49.081Z,34.59
2022-08-22T11:11:49.067Z,33.82
2022-08-22T11:12:49.065Z,32.62
2022-08-22T11:13:49.710Z,32.60
2022-08-22T11:14:49.064Z,32.99
2022-08-22T11:15:49.059Z,33.22
2022-08-22T11:16:55.416Z,33.85
2022-08-22T11:17:54.270Z,35.06
2022-08-22T11:18:55.931Z,36.00
2022-08-22T11:19:50.007Z,39.61
2022-08-22T11:20:48.977Z,37.88
2022-08-22T11:21:51.037Z,38.37
2022-08-22T11:22:48.971Z,38.15
2022-08-22T11:23:48.945Z,37.33
2022-08-22T11:24:55.795Z,37.73
2022-08-22T11:25:52.542Z,37.63
2022-08-22T11:26:48.919Z,37.73
2022-08-22T11:27:48.903Z,38.02
2022-08-22T11:28:48.916Z,37.46
2022-08-22T11:29:48.880Z,39.07
2022-08-22T11:30:50.361Z,40.06
2022-08-22T11:31:51.463Z,39.64
2022-08-22T11:32:48.887Z,39.58
2022-08-22T11:33:48.865Z,39.98
2022-08-22T11:34:48.836Z,39.58
2022-08-22T11:35:48.827Z,38.78
2022-08-22T11:36:50.290Z,40.00
2022-08-22T11:37:48.801Z,40.19
2022-08-22T11:38:49.814Z,39.72
2022-08-22T11:39:48.808Z,39.78
2022-08-22T11:40:48.768Z,39.94
2022-08-22T11:41:52.431Z,38.74
2022-08-22T11:42:48.774Z,39.90
2022-08-22T11:43:48.739Z,42.22
2022-08-22T11:44:50.356Z,41.96
2022-08-22T11:45:48.774Z,42.16
2022-08-22T11:46:48.708Z,42.54
2022-08-22T11:47:48.697Z,41.93
2022-08-22T11:48:48.838Z,41.93
2022-08-22T11:49:48.928Z,42.34
2022-08-22T11:50:48.671Z,42.71
2022-08-22T11:51:49.570Z,42.08
2022-08-22T11:52:51.664Z,41.86
2022-08-22T11:53:48.652Z,41.94
2022-08-22T11:54:48.627Z,41.39
2022-08-22T11:55:48.640Z,41.77
2022-08-22T11:56:48.609Z,41.86
2022-08-22T11:57:48.621Z,41.08
2022-08-22T11:58:48.607Z,42.61
2022-08-22T11:59:48.574Z,42.69
2022-08-22T12:00:48.561Z,45.62
2022-08-22T12:01:48.603Z,44.20
2022-08-22T12:02:48.589Z,44.35
2022-08-22T12:03:55.737Z,42.65
2022-08-22T12:04:49.524Z,42.85
2022-08-22T12:05:48.516Z,43.51
2022-08-22T12:06:49.750Z,45.23
2022-08-22T12:07:50.590Z,45.10
2022-08-22T12:08:48.497Z,45.78
2022-08-22T12:09:48.469Z,44.91
2022-08-22T12:10:48.841Z,45.52
2022-08-22T12:11:48.461Z,46.88
2022-08-22T12:12:48.447Z,46.80
2022-08-22T12:13:48.443Z,46.58
2022-08-22T12:14:48.415Z,46.23
2022-08-22T12:15:49.001Z,46.19
2022-08-22T12:16:49.414Z,44.27
2022-08-22T12:17:55.741Z,42.36
2022-08-22T12:18:49.792Z,42.24
2022-08-22T12:20:14.377Z,41.11
2022-08-22T12:20:49.355Z,40.09
2022-08-22T12:21:49.619Z,39.74
2022-08-22T12:22:49.922Z,38.25
2022-08-22T12:23:49.301Z,37.17
2022-08-22T12:24:48.313Z,38.07
2022-08-22T12:25:48.326Z,37.68
2022-08-22T12:26:48.316Z,38.15
2022-08-22T12:27:50.823Z,38.82
2022-08-22T12:28:49.269Z,39.76
2022-08-22T12:29:48.268Z,39.39
2022-08-22T12:30:48.270Z,38.29
2022-08-22T12:31:49.288Z,39.11
2022-08-22T12:32:49.052Z,40.70
2022-08-22T12:33:48.371Z,44.06
2022-08-22T12:34:48.211Z,44.12
2022-08-22T12:35:48.220Z,42.40
2022-08-22T12:36:48.197Z,41.38
2022-08-22T12:37:52.190Z,40.64
2022-08-22T12:38:49.173Z,39.05
2022-08-22T12:39:48.325Z,39.21
2022-08-22T12:40:48.149Z,37.32
2022-08-22T12:41:48.304Z,37.13
2022-08-22T12:42:48.401Z,39.05
2022-08-22T12:43:49.502Z,39.05
2022-08-22T12:44:48.123Z,37.97
2022-08-22T12:45:50.739Z,38.74
2022-08-22T12:46:48.225Z,37.62
2022-08-22T12:47:48.102Z,37.01
2022-08-22T12:48:48.073Z,37.09
2022-08-22T12:49:49.950Z,36.98
2022-08-22T12:50:48.049Z,36.76
2022-08-22T12:51:48.055Z,36.47